Time;durP1;ratioP1;P1;durP2;ratioP2;P2;SDS_P1;SDS_P2;PMS_P1;PMS_P2;Temp;Humidity;BMP_temperature;BMP_pressure;BME280_temperature;BME280_humidity;BME280_pressure;Samples;Min_cycle;Max_cycle;Signal;HPM_P1;HPM_P2
2022/12/13 00:01:23;;;;;;;;;;;;;;;-3.34;100.00;101305.78;5058290;28;19918;-78
2022/12/13 00:03:51;;;;;;;;;;;;;;;-3.31;100.00;101318.59;5057710;28;19924;-77
2022/12/13 00:06:16;;;;;;;;;;;;;;;-3.23;100.00;101320.94;5060507;28;20391;-78
2022/12/13 00:08:41;;;;;;;;;;;;;;;-3.17;100.00;101323.31;5042053;28;19916;-78
2022/12/13 00:11:09;;;;;;;;;;;;;;;-3.15;100.00;101316.38;5058923;28;20391;-77
2022/12/13 00:13:34;;;;;;;;;;;;;;;-3.10;100.00;101317.06;5062377;28;20426;-75
2022/12/13 00:16:01;;;;;;;;;;;;;;;-3.07;100.00;101316.97;5057390;28;19920;-75
2022/12/13 00:18:27;;;;;;;;;;;;;;;-3.14;100.00;101307.72;5075308;28;19924;-76
2022/12/13 00:20:52;;;;;;;;;;;;;;;-3.12;100.00;101318.84;5057158;28;19921;-77
2022/12/13 00:23:18;;;;;;;;;;;;;;;-3.10;100.00;101299.81;5064110;28;19965;-78
2022/12/13 00:25:43;;;;;;;;;;;;;;;-3.12;100.00;101305.94;5062712;28;19975;-76
2022/12/13 00:28:08;;;;;;;;;;;;;;;-3.11;100.00;101305.06;5057455;28;20441;-78
2022/12/13 00:30:34;;;;;;;;;;;;;;;-3.12;100.00;101304.19;5042874;28;19921;-77
2022/12/13 00:32:59;;;;;;;;;;;;;;;-3.17;100.00;101303.50;5046737;28;19923;-75
2022/12/13 00:35:25;;;;;;;;;;;;;;;-3.21;100.00;101296.75;5060247;28;19916;-76
2022/12/13 00:37:50;;;;;;;;;;;;;;;-3.25;100.00;101295.16;5056444;28;19924;-75
2022/12/13 00:40:15;;;;;;;;;;;;;;;-3.28;100.00;101294.44;5058353;28;19918;-77
2022/12/13 00:42:40;;;;;;;;;;;;;;;-3.34;100.00;101285.16;5057258;28;19920;-76
2022/12/13 00:45:06;;;;;;;;;;;;;;;-3.36;100.00;101290.34;5058828;28;19959;-76
2022/12/13 00:47:31;;;;;;;;;;;;;;;-3.35;100.00;101289.47;5041436;28;20375;-78
2022/12/13 00:49:56;;;;;;;;;;;;;;;-3.39;100.00;101287.88;5058449;28;19928;-77
2022/12/13 00:52:22;;;;;;;;;;;;;;;-3.43;100.00;101291.44;5063400;28;19962;-78
2022/12/13 00:54:47;;;;;;;;;;;;;;;-3.42;100.00;101277.66;5058327;28;20002;-75
2022/12/13 00:57:12;;;;;;;;;;;;;;;-3.41;100.00;101274.19;5059050;28;19924;-75
2022/12/13 00:59:37;;;;;;;;;;;;;;;-3.42;100.00;101272.50;5057766;28;20019;-78
2022/12/13 01:02:03;;;;;;;;;;;;;;;-3.39;100.00;101267.22;5056153;28;20265;-75
2022/12/13 01:04:28;;;;;;;;;;;;;;;-3.43;100.00;101265.66;5058988;28;19908;-82
2022/12/13 01:06:54;;;;;;;;;;;;;;;-3.50;100.00;101269.31;5059721;28;20017;-83
2022/12/13 01:09:28;;;;;;;;;;;;;;;-3.56;100.00;101272.09;5058444;28;19924;-83
2022/12/13 01:11:57;;;;;;;;;;;;;;;-3.73;100.00;101263.16;5074176;28;19912;-82
2022/12/13 01:14:23;;;;;;;;;;;;;;;-3.76;100.00;101258.09;5041809;28;19920;-83
2022/12/13 01:16:48;;;;;;;;;;;;;;;-3.79;100.00;101259.91;5058378;28;19920;-82
2022/12/13 01:19:13;;;;;;;;;;;;;;;-3.77;100.00;101253.84;5059619;28;19917;-83
2022/12/13 01:21:39;;;;;;;;;;;;;;;-3.76;100.00;101263.25;5043499;28;19913;-82
2022/12/13 01:24:05;;;;;;;;;;;;;;;-3.71;100.00;101270.84;5058623;28;19912;-82
2022/12/13 01:26:30;;;;;;;;;;;;;;;-3.70;100.00;101279.41;5059103;28;20431;-82
2022/12/13 01:28:56;;;;;;;;;;;;;;;-3.75;100.00;101279.56;5059307;28;19991;-82
2022/12/13 01:31:21;;;;;;;;;;;;;;;-3.84;100.00;101278.13;5058428;28;19987;-81
2022/12/13 01:33:47;;;;;;;;;;;;;;;-3.83;100.00;101277.25;5059943;28;19977;-84
2022/12/13 01:36:13;;;;;;;;;;;;;;;-3.81;100.00;101279.75;5059757;28;19956;-83
2022/12/13 01:38:39;;;;;;;;;;;;;;;-3.82;100.00;101284.06;5058027;28;19919;-83
2022/12/13 01:41:05;;;;;;;;;;;;;;;-3.95;100.00;101277.59;5058075;28;20509;-80
2022/12/13 01:43:36;;;;;;;;;;;;;;;-4.03;100.00;101275.28;5039366;28;20011;-83
2022/12/13 01:46:02;;;;;;;;;;;;;;;-4.02;100.00;101279.53;5060190;28;20568;-83
2022/12/13 01:48:30;;;;;;;;;;;;;;;-4.07;100.00;101271.09;5041635;28;19923;-83
2022/12/13 01:50:59;;;;;;;;;;;;;;;-4.11;100.00;101273.81;5058451;28;19913;-83
2022/12/13 01:53:27;;;;;;;;;;;;;;;-4.14;100.00;101275.59;5058263;28;19954;-83
2022/12/13 01:55:55;;;;;;;;;;;;;;;-4.18;100.00;101279.16;5057867;28;19941;-83
2022/12/13 01:58:21;;;;;;;;;;;;;;;-4.14;100.00;101272.16;5057862;28;19921;-83
2022/12/13 02:00:46;;;;;;;;;;;;;;;-4.11;100.00;101271.25;5057718;28;19962;-83
2022/12/13 02:03:13;;;;;;;;;;;;;;;-4.13;100.00;101274.69;5058776;28;19916;-83
2022/12/13 02:05:42;;;;;;;;;;;;;;;-4.09;100.00;101269.44;5057593;28;20665;-83
2022/12/13 02:08:10;;;;;;;;;;;;;;;-4.07;100.00;101272.81;5059138;28;19940;-83
2022/12/13 02:10:35;;;;;;;;;;;;;;;-4.07;100.00;101276.25;5058181;28;19916;-81
2022/12/13 02:13:00;;;;;;;;;;;;;;;-4.03;100.00;101280.44;5057089;28;20052;-83
2022/12/13 02:15:30;;;;;;;;;;;;;;;-4.01;100.00;101282.94;5056952;28;19916;-83
2022/12/13 02:18:11;;;;;;;;;;;;;;;-3.96;100.00;101281.09;5058425;28;19917;-82
2022/12/13 02:20:41;;;;;;;;;;;;;;;-3.96;100.00;101275.94;5058476;28;20870;-82
2022/12/13 02:23:10;;;;;;;;;;;;;;;-4.02;100.00;101279.53;5059075;28;19923;-81
2022/12/13 02:25:35;;;;;;;;;;;;;;;-4.05;100.00;101277.06;5066035;28;19955;-82
2022/12/13 02:28:19;;;;;;;;;;;;;;;-4.05;100.00;101274.47;5058299;28;19952;-83
2022/12/13 02:30:50;;;;;;;;;;;;;;;-4.02;100.00;101276.13;5056594;28;19908;-83
2022/12/13 02:33:21;;;;;;;;;;;;;;;-4.04;100.00;101268.41;5057741;28;19913;-83
2022/12/13 02:35:55;;;;;;;;;;;;;;;-4.03;100.00;101264.97;5058064;28;19974;-83
2022/12/13 02:38:20;;;;;;;;;;;;;;;-4.05;100.00;101263.28;5059579;28;20640;-83
2022/12/13 02:40:59;;;;;;;;;;;;;;;-4.09;100.00;101253.97;5065127;28;19909;-83
2022/12/13 02:43:31;;;;;;;;;;;;;;;-4.06;100.00;101251.31;5058148;28;19916;-83
2022/12/13 02:46:00;;;;;;;;;;;;;;;-4.05;100.00;101259.00;5058010;28;20007;-83
2022/12/13 02:48:32;;;;;;;;;;;;;;;-4.11;100.00;101261.75;5057425;28;19917;-83
2022/12/13 02:50:59;;;;;;;;;;;;;;;-4.16;100.00;101263.63;5058091;28;19955;-84
2022/12/13 02:53:24;;;;;;;;;;;;;;;-4.17;100.00;101249.06;5057675;28;19912;-83
2022/12/13 02:55:49;;;;;;;;;;;;;;;-4.21;100.00;101250.88;5058482;28;19940;-83
2022/12/13 02:58:18;;;;;;;;;;;;;;;-4.20;100.00;101246.59;5056069;28;19921;-83
2022/12/13 03:00:52;;;;;;;;;;;;;;;-4.19;100.00;101253.41;5058318;28;19919;-83
2022/12/13 03:03:20;;;;;;;;;;;;;;;-4.19;100.00;101250.84;5058903;28;20368;-84
2022/12/13 03:08:34;;;;;;;;;;;;;;;-4.26;100.00;101241.59;5063531;28;19986;-83
2022/12/13 03:11:08;;;;;;;;;;;;;;;-4.33;100.00;101238.38;5060950;28;19985;-83
2022/12/13 03:13:46;;;;;;;;;;;;;;;-4.43;100.00;101236.94;5061251;28;20484;-83
2022/12/13 03:16:26;;;;;;;;;;;;;;;-4.39;100.00;101230.81;5062425;28;19916;-83
2022/12/13 03:18:53;;;;;;;;;;;;;;;-4.39;100.00;101236.81;5060223;28;19916;-83
2022/12/13 03:21:19;;;;;;;;;;;;;;;-4.40;100.00;101234.25;5061906;28;19918;-84
2022/12/13 03:23:45;;;;;;;;;;;;;;;-4.35;100.00;101229.84;5043491;28;20023;-83
2022/12/13 03:26:12;;;;;;;;;;;;;;;-4.37;100.00;101231.63;5043824;28;19921;-83
2022/12/13 03:28:38;;;;;;;;;;;;;;;-4.39;100.00;101230.81;5045888;28;19916;-83
2022/12/13 03:31:04;;;;;;;;;;;;;;;-4.33;100.00;101230.63;5044152;28;20298;-82
2022/12/13 03:33:29;;;;;;;;;;;;;;;-4.36;100.00;101230.72;5060559;28;19912;-83
2022/12/13 03:35:55;;;;;;;;;;;;;;;-4.43;100.00;101231.78;5045153;28;19916;-83
2022/12/13 03:38:20;;;;;;;;;;;;;;;-4.46;100.00;101229.31;5059955;28;19978;-83
2022/12/13 03:40:45;;;;;;;;;;;;;;;-4.46;100.00;101234.47;5060554;28;19916;-83
2022/12/13 03:43:11;;;;;;;;;;;;;;;-4.53;100.00;101235.50;5060792;28;19912;-83
2022/12/13 03:45:36;;;;;;;;;;;;;;;-4.52;100.00;101234.63;5045493;28;19970;-83
2022/12/13 03:48:01;;;;;;;;;;;;;;;-4.50;100.00;101227.72;5059901;28;20001;-84
2022/12/13 03:50:27;;;;;;;;;;;;;;;-4.52;100.00;101225.16;5045780;28;20328;-84
2022/12/13 03:52:59;;;;;;;;;;;;;;;-4.56;100.00;101228.72;5061106;28;20020;-80
2022/12/13 03:55:24;;;;;;;;;;;;;;;-4.58;100.00;101238.22;5057702;28;19916;-84
2022/12/13 03:57:49;;;;;;;;;;;;;;;-4.57;100.00;101227.88;5059877;28;19929;-82
2022/12/13 04:00:15;;;;;;;;;;;;;;;-4.51;100.00;101237.16;5059398;28;19917;-83
2022/12/13 04:02:40;;;;;;;;;;;;;;;-4.48;100.00;101236.25;5061478;28;19913;-82
2022/12/13 04:05:05;;;;;;;;;;;;;;;-4.53;100.00;101233.78;5059559;28;19909;-82
2022/12/13 04:07:31;;;;;;;;;;;;;;;-4.53;100.00;101232.94;5059509;28;19913;-82
2022/12/13 04:09:56;;;;;;;;;;;;;;;-4.63;100.00;101232.38;5060138;28;19916;-82
2022/12/13 04:15:05;;;;;;;;;;;;;;;-4.67;100.00;101236.75;5059340;28;19923;-82
2022/12/13 04:17:31;;;;;;;;;;;;;;;-4.65;100.00;101231.56;5043075;28;19943;-82
2022/12/13 04:19:56;;;;;;;;;;;;;;;-4.60;100.00;101235.69;5061849;28;20003;-82
2022/12/13 04:22:21;;;;;;;;;;;;;;;-4.53;100.00;101231.19;5043455;28;19916;-82
2022/12/13 04:24:46;;;;;;;;;;;;;;;-4.49;100.00;101230.22;5043479;28;19921;-83
2022/12/13 04:27:12;;;;;;;;;;;;;;;-4.51;100.00;101226.00;5060600;28;19924;-83
2022/12/13 04:29:37;;;;;;;;;;;;;;;-4.57;100.00;101221.91;5049848;28;19921;-83
2022/12/13 04:32:03;;;;;;;;;;;;;;;-4.62;100.00;101223.72;5044220;28;19912;-82
2022/12/13 04:34:28;;;;;;;;;;;;;;;-4.64;100.00;101216.06;5059969;28;20027;-83
2022/12/13 04:36:54;;;;;;;;;;;;;;;-4.69;100.00;101217.91;5058622;28;20397;-82
2022/12/13 04:39:19;;;;;;;;;;;;;;;-4.69;100.00;101215.34;5058435;28;20505;-84
2022/12/13 04:41:44;;;;;;;;;;;;;;;-4.72;100.00;101210.28;5060693;28;20275;-83
2022/12/13 04:44:09;;;;;;;;;;;;;;;-4.81;100.00;101207.97;5042814;28;19924;-83
2022/12/13 04:46:35;;;;;;;;;;;;;;;-4.79;100.00;101206.19;5042710;28;20018;-83
2022/12/13 04:49:00;;;;;;;;;;;;;;;-4.79;100.00;101201.03;5060115;28;19916;-84
2022/12/13 04:51:25;;;;;;;;;;;;;;;-4.73;100.00;101200.84;5043409;28;19927;-83
2022/12/13 04:53:51;;;;;;;;;;;;;;;-4.66;100.00;101201.53;5059139;28;19913;-83
2022/12/13 04:56:16;;;;;;;;;;;;;;;-4.64;100.00;101200.63;5042829;28;19920;-82
2022/12/13 04:58:41;;;;;;;;;;;;;;;-4.64;100.00;101203.19;5057583;28;19920;-81
2022/12/13 05:01:10;;;;;;;;;;;;;;;-4.60;100.00;101202.19;5042847;28;19928;-82
2022/12/13 05:03:35;;;;;;;;;;;;;;;-4.58;100.00;101199.59;5066331;28;19916;-83
2022/12/13 05:06:04;;;;;;;;;;;;;;;-4.60;100.00;101202.19;5056679;28;19916;-82
2022/12/13 05:08:30;;;;;;;;;;;;;;;-4.63;100.00;101202.28;5060247;28;20418;-84
2022/12/13 05:10:55;;;;;;;;;;;;;;;-4.62;100.00;101203.97;5050387;28;19916;-82
2022/12/13 05:13:20;;;;;;;;;;;;;;;-4.64;100.00;101203.19;5060497;28;19999;-83
2022/12/13 05:15:45;;;;;;;;;;;;;;;-4.70;100.00;101199.94;5058917;28;19916;-83
2022/12/13 05:18:11;;;;;;;;;;;;;;;-4.76;100.00;101195.81;5058942;28;19928;-84
2022/12/13 05:20:37;;;;;;;;;;;;;;;-4.76;100.00;101183.78;5058356;28;19920;-83
2022/12/13 05:23:02;;;;;;;;;;;;;;;-4.75;100.00;101182.03;5060537;28;20441;-83
2022/12/13 05:25:28;;;;;;;;;;;;;;;-4.78;100.00;101187.28;5055399;28;19924;-84
2022/12/13 05:27:54;;;;;;;;;;;;;;;-4.83;100.00;101189.16;5040399;28;19917;-84
2022/12/13 05:30:20;;;;;;;;;;;;;;;-4.83;100.00;101184.00;5064315;28;19912;-84
2022/12/13 05:32:45;;;;;;;;;;;;;;;-4.79;100.00;101190.72;5057644;28;19926;-83
2022/12/13 05:35:14;;;;;;;;;;;;;;;-4.76;100.00;101190.66;5040372;28;19948;-83
2022/12/13 05:37:40;;;;;;;;;;;;;;;-4.85;100.00;101188.34;5055799;28;19916;-84
2022/12/13 05:40:05;;;;;;;;;;;;;;;-4.84;100.00;101188.28;5055903;28;19916;-84
2022/12/13 05:42:30;;;;;;;;;;;;;;;-4.84;100.00;101179.72;5055749;28;19959;-83
2022/12/13 05:44:56;;;;;;;;;;;;;;;-4.84;100.00;101178.00;5055427;28;19928;-82
2022/12/13 05:47:21;;;;;;;;;;;;;;;-4.84;100.00;101177.16;5057291;28;20407;-82
2022/12/13 05:49:46;;;;;;;;;;;;;;;-4.93;100.00;101174.84;5041770;28;20551;-83
2022/12/13 05:52:15;;;;;;;;;;;;;;;-5.00;100.00;101167.28;5040711;28;19995;-83
2022/12/13 05:54:41;;;;;;;;;;;;;;;-4.99;100.00;101168.13;5055716;28;19924;-82
2022/12/13 05:57:06;;;;;;;;;;;;;;;-5.10;100.00;101165.84;5055496;28;19955;-83
2022/12/13 05:59:32;;;;;;;;;;;;;;;-5.05;100.00;101169.16;5038468;28;19927;-83
2022/12/13 06:01:57;;;;;;;;;;;;;;;-5.08;100.00;101169.22;5040365;28;19916;-83
2022/12/13 06:04:22;;;;;;;;;;;;;;;-5.06;100.00;101167.47;5056351;28;19928;-83
2022/12/13 06:06:47;;;;;;;;;;;;;;;-5.06;100.00;101174.34;5054080;28;19959;-84
2022/12/13 06:09:13;;;;;;;;;;;;;;;-5.07;100.00;101170.09;5040550;28;19981;-81
2022/12/13 06:11:38;;;;;;;;;;;;;;;-5.13;100.00;101175.41;5038266;28;19927;-83
2022/12/13 06:14:03;;;;;;;;;;;;;;;-5.20;100.00;101177.31;5055808;28;19913;-83
2022/12/13 06:16:28;;;;;;;;;;;;;;;-5.21;100.00;101167.88;5055383;28;19993;-83
2022/12/13 06:18:54;;;;;;;;;;;;;;;-5.26;100.00;101169.75;5038650;28;19924;-82
2022/12/13 06:21:19;;;;;;;;;;;;;;;-5.23;100.00;101164.50;5055618;28;20002;-83
2022/12/13 06:23:45;;;;;;;;;;;;;;;-5.22;100.00;101171.34;5039182;28;19917;-86
2022/12/13 06:26:10;;;;;;;;;;;;;;;-5.22;100.00;101173.91;5056787;28;19912;-84
2022/12/13 06:28:35;;;;;;;;;;;;;;;-5.22;100.00;101176.50;5057301;28;19920;-84
2022/12/13 06:31:02;;;;;;;;;;;;;;;-5.16;100.00;101176.34;5039105;28;20423;-84
2022/12/13 06:33:27;;;;;;;;;;;;;;;-5.13;100.00;101176.25;5055680;28;19995;-83
2022/12/13 06:35:55;;;;;;;;;;;;;;;-5.15;100.00;101167.72;5037331;28;20000;-84
2022/12/13 06:38:20;;;;;;;;;;;;;;;-5.17;100.00;101172.06;5056156;28;20791;-84
2022/12/13 06:40:45;;;;;;;;;;;;;;;-5.15;100.00;101179.75;5054889;28;19916;-84
2022/12/13 06:43:10;;;;;;;;;;;;;;;-5.09;100.00;101166.72;5045486;28;19924;-85
2022/12/13 06:45:39;;;;;;;;;;;;;;;-5.10;100.00;101181.28;5052811;28;19920;-85
2022/12/13 06:48:05;;;;;;;;;;;;;;;-5.11;100.00;101183.94;5063469;28;20043;-84
2022/12/13 06:50:31;;;;;;;;;;;;;;;-5.15;100.00;101185.72;5054005;28;19999;-84
2022/12/13 06:52:56;;;;;;;;;;;;;;;-5.19;100.00;101184.97;5055908;28;19924;-86
2022/12/13 06:55:22;;;;;;;;;;;;;;;-5.15;100.00;101182.31;5056603;28;19987;-85
2022/12/13 06:57:47;;;;;;;;;;;;;;;-5.13;100.00;101188.28;5056365;28;20456;-86
2022/12/13 07:00:13;;;;;;;;;;;;;;;-5.15;100.00;101188.31;5053362;28;19927;-86
2022/12/13 07:02:38;;;;;;;;;;;;;;;-5.19;100.00;101186.69;5057755;28;20376;-86
2022/12/13 07:05:03;;;;;;;;;;;;;;;-5.18;100.00;101188.41;5059287;28;19917;-85
2022/12/13 07:07:29;;;;;;;;;;;;;;;-5.10;100.00;101191.59;5056642;28;19920;-85
2022/12/13 07:09:55;;;;;;;;;;;;;;;-5.12;100.00;101193.34;5056639;28;19930;-86
2022/12/13 07:12:20;;;;;;;;;;;;;;;-5.09;100.00;101190.72;5059610;28;19916;-84
2022/12/13 07:14:46;;;;;;;;;;;;;;;-5.05;100.00;101194.91;5040562;28;20291;-79
2022/12/13 07:17:11;;;;;;;;;;;;;;;-5.03;100.00;101189.69;5056280;28;19921;-83
2022/12/13 07:19:36;;;;;;;;;;;;;;;-5.11;100.00;101189.91;5057539;28;19924;-82
2022/12/13 07:22:04;;;;;;;;;;;;;;;-5.18;100.00;101181.50;5055740;28;19917;-83
2022/12/13 07:24:29;;;;;;;;;;;;;;;-5.14;100.00;101182.25;5057521;28;19994;-81
2022/12/13 07:26:54;;;;;;;;;;;;;;;-5.11;100.00;101184.75;5056318;28;20095;-83
2022/12/13 07:29:20;;;;;;;;;;;;;;;-5.15;100.00;101187.47;5063532;28;19954;-83
2022/12/13 07:31:45;;;;;;;;;;;;;;;-5.19;100.00;101177.22;5057484;28;20408;-84
2022/12/13 07:34:10;;;;;;;;;;;;;;;-5.17;100.00;101187.50;5056405;28;20386;-84
2022/12/13 07:36:35;;;;;;;;;;;;;;;-5.23;100.00;101185.91;5055009;28;19916;-82
2022/12/13 07:39:01;;;;;;;;;;;;;;;-5.15;100.00;101190.03;5057160;28;20330;-84
2022/12/13 07:41:26;;;;;;;;;;;;;;;-5.12;100.00;101183.06;5056221;28;19916;-84
2022/12/13 07:43:52;;;;;;;;;;;;;;;-5.06;100.00;101193.19;5038885;28;19936;-84
2022/12/13 07:46:17;;;;;;;;;;;;;;;-5.07;100.00;101185.53;5055479;28;19969;-84
2022/12/13 07:48:42;;;;;;;;;;;;;;;-5.10;100.00;101196.72;5058176;28;19908;-82
2022/12/13 07:51:10;;;;;;;;;;;;;;;-5.09;100.00;101206.16;5059749;28;19920;-84
2022/12/13 07:53:36;;;;;;;;;;;;;;;-5.11;100.00;101205.34;5060045;28;20395;-81
2022/12/13 07:56:05;;;;;;;;;;;;;;;-5.05;100.00;101210.34;5060207;28;19916;-83
2022/12/13 07:58:32;;;;;;;;;;;;;;;-5.02;100.00;101205.09;5060623;28;19916;-82
2022/12/13 08:01:01;;;;;;;;;;;;;;;-4.95;100.00;101210.91;5043635;28;20435;-84
2022/12/13 08:03:28;;;;;;;;;;;;;;;-4.97;100.00;101215.25;5060458;28;20074;-85
2022/12/13 08:06:05;;;;;;;;;;;;;;;-4.89;100.00;101215.06;5060823;28;19943;-84
2022/12/13 08:08:31;;;;;;;;;;;;;;;-4.86;100.00;101226.09;5059057;28;19912;-85
2022/12/13 08:11:03;;;;;;;;;;;;;;;-4.83;100.00;101220.06;5060557;28;19908;-84
2022/12/13 08:13:28;;;;;;;;;;;;;;;-4.80;100.00;101225.94;5060062;28;19927;-82
2022/12/13 08:15:58;;;;;;;;;;;;;;;-4.73;100.00;101231.75;5043742;28;19916;-81
2022/12/13 08:18:23;;;;;;;;;;;;;;;-4.77;100.00;101230.16;5058371;28;19947;-82
2022/12/13 08:20:49;;;;;;;;;;;;;;;-4.73;100.00;101226.63;5058339;28;20490;-84
2022/12/13 08:23:14;;;;;;;;;;;;;;;-4.69;100.00;101224.81;5057111;28;19921;-81
2022/12/13 08:25:39;;;;;;;;;;;;;;;-4.61;100.00;101215.13;5043283;28;19917;-83
2022/12/13 08:28:04;;;;;;;;;;;;;;;-4.57;100.00;101222.72;5043379;28;19970;-83
2022/12/13 08:30:31;;;;;;;;;;;;;;;-4.41;100.00;101228.28;5041872;28;19912;-83
2022/12/13 08:32:56;;;;;;;;;;;;;;;-4.35;100.00;101217.78;5059625;28;19934;-83
2022/12/13 08:35:21;;;;;;;;;;;;;;;-4.34;100.00;101221.19;5058698;28;19920;-84
2022/12/13 08:37:46;;;;;;;;;;;;;;;-4.38;100.00;101206.72;5058396;28;20403;-84
2022/12/13 08:40:13;;;;;;;;;;;;;;;-4.32;100.00;101222.00;5058492;28;19912;-85
2022/12/13 08:42:38;;;;;;;;;;;;;;;-4.20;100.00;101219.06;5059823;28;19958;-83
2022/12/13 08:45:04;;;;;;;;;;;;;;;-4.10;100.00;101221.34;5057811;28;19986;-84
2022/12/13 08:47:29;;;;;;;;;;;;;;;-3.94;100.00;101225.16;5042511;28;19912;-82
2022/12/13 08:49:58;;;;;;;;;;;;;;;-3.89;100.00;101231.00;5060315;28;19913;-81
2022/12/13 08:52:23;;;;;;;;;;;;;;;-3.93;100.00;101230.25;5075509;28;19974;-79
2022/12/13 08:54:49;;;;;;;;;;;;;;;-4.10;100.00;101236.81;5060368;28;20559;-82
2022/12/13 08:57:14;;;;;;;;;;;;;;;-4.16;100.00;101238.72;5041111;28;19955;-82
2022/12/13 08:59:39;;;;;;;;;;;;;;;-4.00;100.00;101238.25;5057210;28;19920;-79
2022/12/13 09:02:05;;;;;;;;;;;;;;;-3.72;100.00;101238.22;5042274;28;19927;-82
2022/12/13 09:04:30;;;;;;;;;;;;;;;-3.51;100.00;101246.97;5056539;28;19992;-82
2022/12/13 09:06:55;;;;;;;;;;;;;;;-3.46;100.00;101245.13;5057501;28;19969;-81
2022/12/13 09:09:20;;;;;;;;;;;;;;;-2.92;100.00;101236.38;5055676;28;20011;-80
2022/12/13 09:11:46;;;;;;;;;;;;;;;-2.70;100.00;101241.63;5057830;28;20261;-80
2022/12/13 09:14:11;;;;;;;;;;;;;;;-2.96;100.00;101239.97;5057889;28;19934;-80
2022/12/13 09:16:37;;;;;;;;;;;;;;;-2.75;100.00;101240.09;5057743;28;19943;-80
2022/12/13 09:19:05;;;;;;;;;;;;;;;-2.62;100.00;101237.91;5057182;28;20384;-80
2022/12/13 09:21:30;;;;;;;;;;;;;;;-2.40;100.00;101235.38;5058110;28;20473;-80
2022/12/13 09:23:56;;;;;;;;;;;;;;;-2.14;100.00;101235.22;5043216;28;19916;-81
2022/12/13 09:26:21;;;;;;;;;;;;;;;-1.95;100.00;101229.34;5060327;28;19912;-80
2022/12/13 09:28:46;;;;;;;;;;;;;;;-1.62;100.00;101228.91;5059232;28;20352;-81
2022/12/13 09:31:13;;;;;;;;;;;;;;;-1.29;100.00;101230.06;5061378;28;19912;-81
2022/12/13 09:33:38;;;;;;;;;;;;;;;-1.01;100.00;101220.31;5060085;28;19908;-80
2022/12/13 09:36:05;;;;;;;;;;;;;;;-0.42;100.00;101230.59;5058519;28;19932;-79
2022/12/13 09:38:30;;;;;;;;;;;;;;;0.19;100.00;101221.69;5048755;28;19924;-79
2022/12/13 09:40:58;;;;;;;;;;;;;;;0.69;100.00;101227.06;5042466;28;19920;-79
2022/12/13 09:43:26;;;;;;;;;;;;;;;0.63;100.00;101212.63;5057556;28;19908;-79
2022/12/13 09:45:52;;;;;;;;;;;;;;;1.57;100.00;101216.41;5065311;28;19931;-79
2022/12/13 09:48:19;;;;;;;;;;;;;;;1.95;100.00;101216.03;5059468;28;19928;-79
2022/12/13 09:50:45;;;;;;;;;;;;;;;2.45;100.00;101217.56;5060045;28;19912;-80
2022/12/13 09:53:12;;;;;;;;;;;;;;;2.85;100.00;101223.06;5042407;28;19920;-80
2022/12/13 09:55:38;;;;;;;;;;;;;;;3.31;100.00;101214.22;5059815;28;20007;-79
2022/12/13 09:58:13;;;;;;;;;;;;;;;3.64;100.00;101213.91;5064902;28;19931;-80
2022/12/13 10:00:39;;;;;;;;;;;;;;;3.01;100.00;101201.28;5060107;28;19916;-80
2022/12/13 10:03:04;;;;;;;;;;;;;;;3.55;100.00;101203.19;5076423;28;19913;-80
2022/12/13 10:05:31;;;;;;;;;;;;;;;3.85;100.00;101195.19;5060355;28;19935;-80
2022/12/13 10:07:58;;;;;;;;;;;;;;;3.63;100.00;101193.94;5059113;28;19999;-80
2022/12/13 10:10:23;;;;;;;;;;;;;;;4.04;100.00;101190.47;5059413;28;19943;-81
2022/12/13 10:13:00;;;;;;;;;;;;;;;4.97;99.91;101202.66;5058342;28;19960;-82
2022/12/13 10:15:27;;;;;;;;;;;;;;;5.70;94.12;101192.25;5060162;28;20336;-81
2022/12/13 10:17:52;;;;;;;;;;;;;;;5.35;92.26;101192.97;5058863;28;19971;-83
2022/12/13 10:20:19;;;;;;;;;;;;;;;6.45;90.57;101185.97;5058170;28;20058;-82
2022/12/13 10:22:44;;;;;;;;;;;;;;;7.12;87.18;101187.84;5059077;28;20277;-82
2022/12/13 10:25:10;;;;;;;;;;;;;;;7.17;81.52;101190.13;5059262;28;19920;-82
2022/12/13 10:27:37;;;;;;;;;;;;;;;7.74;82.54;101188.25;5058796;28;19908;-82
2022/12/13 10:30:05;;;;;;;;;;;;;;;8.98;73.02;101188.50;5058543;28;19916;-83
2022/12/13 10:32:35;;;;;;;;;;;;;;;9.49;68.24;101184.13;5058324;28;20260;-81
2022/12/13 10:35:10;;;;;;;;;;;;;;;8.94;64.72;101186.28;5061914;28;19963;-83
2022/12/13 10:37:35;;;;;;;;;;;;;;;8.27;66.28;101174.31;5061039;28;19963;-82
2022/12/13 10:40:02;;;;;;;;;;;;;;;7.72;67.60;101180.47;5058974;28;20325;-84
2022/12/13 10:42:27;;;;;;;;;;;;;;;6.76;75.65;101176.59;5059497;28;19916;-84
2022/12/13 10:45:19;;;;;;;;;;;;;;;6.36;79.09;101165.69;5042217;28;20399;-84
2022/12/13 10:47:44;;;;;;;;;;;;;;;5.88;83.45;101169.16;5058371;28;19913;-83
2022/12/13 10:50:26;;;;;;;;;;;;;;;6.20;83.66;101165.97;5057509;28;19924;-83
2022/12/13 10:52:53;;;;;;;;;;;;;;;5.20;85.54;101151.34;5060139;28;20528;-83
2022/12/13 10:55:39;;;;;;;;;;;;;;;4.72;92.22;101159.84;5058013;28;20423;-83
2022/12/13 10:58:11;;;;;;;;;;;;;;;5.53;92.71;101161.19;5063248;28;19924;-83
2022/12/13 11:00:38;;;;;;;;;;;;;;;4.79;93.55;101150.66;5056956;28;19916;-84
2022/12/13 11:03:04;;;;;;;;;;;;;;;5.39;93.09;101153.50;5055752;28;19912;-83
2022/12/13 11:05:34;;;;;;;;;;;;;;;4.54;93.44;101151.50;5057647;28;19923;-82
2022/12/13 11:08:19;;;;;;;;;;;;;;;5.22;93.25;101139.81;5056254;28;19975;-83
2022/12/13 11:10:45;;;;;;;;;;;;;;;3.81;98.08;101133.66;5063431;28;19923;-86
2022/12/13 11:13:21;;;;;;;;;;;;;;;2.85;100.00;101126.59;5055882;28;19927;-82
2022/12/13 11:15:52;;;;;;;;;;;;;;;2.44;100.00;101127.31;5057029;28;19922;-83
2022/12/13 11:18:19;;;;;;;;;;;;;;;1.38;100.00;101127.28;5056827;28;20027;-82
2022/12/13 11:20:53;;;;;;;;;;;;;;;1.41;100.00;101121.91;5058358;28;19966;-82
2022/12/13 11:23:24;;;;;;;;;;;;;;;1.13;100.00;101122.56;5057855;28;19951;-81
2022/12/13 11:25:53;;;;;;;;;;;;;;;0.68;100.00;101127.50;5062298;28;19909;-81
2022/12/13 11:28:25;;;;;;;;;;;;;;;0.28;100.00;101123.50;5058683;28;19916;-80
2022/12/13 11:31:13;;;;;;;;;;;;;;;0.06;100.00;101115.94;5060112;28;19955;-83
2022/12/13 11:33:42;;;;;;;;;;;;;;;0.01;100.00;101111.00;5031072;28;19912;-83
2022/12/13 11:36:07;;;;;;;;;;;;;;;0.10;100.00;101114.88;5066503;28;19963;-82
2022/12/13 11:38:51;;;;;;;;;;;;;;;-0.03;100.00;101110.28;5059622;28;19979;-83
2022/12/13 11:41:21;;;;;;;;;;;;;;;-0.31;100.00;101107.38;5056097;28;19958;-84
2022/12/13 11:43:58;;;;;;;;;;;;;;;-0.42;100.00;101100.09;5060284;28;20276;-84
2022/12/13 11:46:39;;;;;;;;;;;;;;;-0.24;100.00;101106.16;5058966;28;19920;-83
2022/12/13 11:49:29;;;;;;;;;;;;;;;-0.21;100.00;101106.00;5055781;28;19954;-82
2022/12/13 11:52:14;;;;;;;;;;;;;;;-0.15;100.00;101100.53;5056139;28;19987;-83
2022/12/13 11:54:54;;;;;;;;;;;;;;;-0.13;100.00;101096.09;5048537;28;19917;-82
2022/12/13 11:57:31;;;;;;;;;;;;;;;-0.23;100.00;101106.06;5066382;28;19946;-82
2022/12/13 11:59:59;;;;;;;;;;;;;;;-0.16;100.00;101091.06;5061312;28;19966;-82
2022/12/13 12:02:24;;;;;;;;;;;;;;;-0.32;100.00;101093.56;5058282;28;20640;-85
2022/12/13 12:04:51;;;;;;;;;;;;;;;-0.21;100.00;101093.03;5058764;28;19921;-83
2022/12/13 12:07:40;;;;;;;;;;;;;;;-0.19;100.00;101087.78;5060086;28;19915;-83
2022/12/13 12:10:20;;;;;;;;;;;;;;;-0.18;100.00;101092.88;5050134;28;19908;-83
2022/12/13 12:12:50;;;;;;;;;;;;;;;-0.24;100.00;101078.47;5060010;28;19927;-83
2022/12/13 12:15:22;;;;;;;;;;;;;;;-0.14;100.00;101086.63;5057962;28;20252;-83
2022/12/13 12:17:47;;;;;;;;;;;;;;;-0.12;100.00;101091.75;5064321;28;20849;-83
2022/12/13 12:20:14;;;;;;;;;;;;;;;-0.12;100.00;101090.00;5056910;28;19924;-83
2022/12/13 12:22:42;;;;;;;;;;;;;;;-0.28;100.00;101089.06;5059170;28;19917;-83
2022/12/13 12:25:26;;;;;;;;;;;;;;;-0.30;100.00;101089.16;5059784;28;19920;-83
2022/12/13 12:28:00;;;;;;;;;;;;;;;-0.18;100.00;101085.09;5058734;28;20836;-83
2022/12/13 12:30:42;;;;;;;;;;;;;;;-0.09;100.00;101089.00;5058532;28;19916;-84
2022/12/13 12:33:08;;;;;;;;;;;;;;;0.01;100.00;101085.03;5060234;28;19913;-82
2022/12/13 12:36:02;;;;;;;;;;;;;;;0.08;100.00;101083.81;5057563;28;19920;-84